createdAt,value
2018-10-18T00:02:08.481Z,16.10
2018-10-18T00:04:36.798Z,14.77
2018-10-18T00:07:05.271Z,15.90
2018-10-18T00:09:33.630Z,17.27
2018-10-18T00:12:01.979Z,14.80
2018-10-18T00:14:30.270Z,14.40
2018-10-18T00:16:58.562Z,17.63
2018-10-18T00:19:26.911Z,17.63
2018-10-18T00:21:55.289Z,19.80
2018-10-18T00:24:23.706Z,17.77
2018-10-18T00:26:52.134Z,18.67
2018-10-18T00:29:20.485Z,18.07
2018-10-18T00:31:48.775Z,17.10
2018-10-18T00:34:17.081Z,16.53
2018-10-18T00:36:45.416Z,17.17
2018-10-18T00:39:14.023Z,20.17
2018-10-18T00:41:42.781Z,15.53
2018-10-18T00:44:11.147Z,15.07
2018-10-18T00:46:39.483Z,15.27
2018-10-18T00:49:07.952Z,18.23
2018-10-18T00:51:36.310Z,18.93
2018-10-18T00:54:05.338Z,25.53
2018-10-18T00:56:33.667Z,21.90
2018-10-18T00:59:01.984Z,19.50
2018-10-18T01:01:30.341Z,19.17
2018-10-18T01:03:58.699Z,17.17
2018-10-18T01:06:27.053Z,16.33
2018-10-18T01:08:55.414Z,17.03
2018-10-18T01:11:23.745Z,14.90
2018-10-18T01:13:52.060Z,15.90
2018-10-18T01:16:20.386Z,13.70
2018-10-18T01:18:48.680Z,15.53
2018-10-18T01:21:17.127Z,15.10
2018-10-18T01:23:45.484Z,16.00
2018-10-18T01:26:13.970Z,15.30
2018-10-18T01:28:42.164Z,17.10
2018-10-18T01:31:10.569Z,19.23
2018-10-18T01:33:39.112Z,21.77
2018-10-18T01:36:07.528Z,21.70
2018-10-18T01:38:35.843Z,24.97
2018-10-18T01:41:04.167Z,32.33
2018-10-18T01:43:32.581Z,28.50
2018-10-18T01:46:00.911Z,27.60
2018-10-18T01:48:29.417Z,38.60
2018-10-18T01:50:57.793Z,65.50
2018-10-18T01:53:26.109Z,73.57
2018-10-18T01:55:54.469Z,75.37
2018-10-18T01:58:22.776Z,42.53
2018-10-18T02:00:51.135Z,32.07
2018-10-18T02:03:19.497Z,31.67
2018-10-18T02:05:47.823Z,25.87
2018-10-18T02:08:16.265Z,25.50
2018-10-18T02:10:44.518Z,26.27
2018-10-18T02:13:12.873Z,27.37
2018-10-18T02:15:41.214Z,41.10
2018-10-18T02:18:09.745Z,42.80
2018-10-18T02:20:37.982Z,34.37
2018-10-18T02:23:06.398Z,42.60
2018-10-18T02:25:34.756Z,49.83
2018-10-18T02:28:03.146Z,56.03
2018-10-18T02:30:31.505Z,49.70
2018-10-18T02:32:59.978Z,51.03
2018-10-18T02:35:28.368Z,41.53
2018-10-18T02:37:56.700Z,22.30
2018-10-18T02:40:25.208Z,25.00
2018-10-18T02:42:53.582Z,33.27
2018-10-18T02:45:21.903Z,21.77
2018-10-18T02:47:50.272Z,22.47
2018-10-18T02:50:18.596Z,33.53
2018-10-18T02:52:46.918Z,31.77
2018-10-18T02:55:15.234Z,35.23
2018-10-18T02:57:43.537Z,31.07
2018-10-18T03:00:11.987Z,37.23
2018-10-18T03:02:40.245Z,38.73
2018-10-18T03:05:08.687Z,35.07
2018-10-18T03:07:37.041Z,32.70
2018-10-18T03:10:06.233Z,42.57
2018-10-18T03:12:34.610Z,44.40
2018-10-18T03:15:02.923Z,35.37
2018-10-18T03:17:31.385Z,40.40
2018-10-18T03:19:59.730Z,53.73
2018-10-18T03:22:28.047Z,45.47
2018-10-18T03:24:56.407Z,47.93
2018-10-18T03:27:24.739Z,42.10
2018-10-18T03:29:53.194Z,45.80
2018-10-18T03:32:21.623Z,52.40
2018-10-18T03:34:49.958Z,63.17
2018-10-18T03:37:18.334Z,78.23
2018-10-18T03:39:46.657Z,80.57
2018-10-18T03:42:15.092Z,91.10
2018-10-18T03:44:43.403Z,89.60
2018-10-18T03:47:11.761Z,94.67
2018-10-18T03:49:40.205Z,105.73
2018-10-18T03:52:08.629Z,111.70
2018-10-18T03:54:37.061Z,128.57
2018-10-18T03:57:05.450Z,120.27
2018-10-18T03:59:33.903Z,120.17
2018-10-18T04:02:02.241Z,128.57
2018-10-18T04:04:30.570Z,122.77
2018-10-18T04:06:58.931Z,132.33
2018-10-18T04:09:27.292Z,139.33
2018-10-18T04:11:55.721Z,149.93
2018-10-18T04:14:24.158Z,156.57
2018-10-18T04:16:52.511Z,155.40
2018-10-18T04:19:20.862Z,139.83
2018-10-18T04:21:49.194Z,139.97
2018-10-18T04:24:17.586Z,126.00
2018-10-18T04:26:45.809Z,128.53
2018-10-18T04:29:14.155Z,109.20
2018-10-18T04:31:42.521Z,108.27
2018-10-18T04:34:10.922Z,112.47
2018-10-18T04:36:39.275Z,102.73
2018-10-18T04:39:09.469Z,117.93
2018-10-18T04:41:37.912Z,114.63
2018-10-18T04:44:06.228Z,126.97
2018-10-18T04:46:34.563Z,116.47
2018-10-18T04:49:02.907Z,124.40
2018-10-18T04:51:31.242Z,143.00
2018-10-18T04:53:59.565Z,119.97
2018-10-18T04:56:27.935Z,119.70
2018-10-18T04:58:56.372Z,118.60
2018-10-18T05:01:24.854Z,150.33
2018-10-18T05:03:53.077Z,160.73
2018-10-18T05:06:21.384Z,189.67
2018-10-18T05:08:49.925Z,200.40
2018-10-18T05:11:18.418Z,195.33
2018-10-18T05:13:46.757Z,196.27
2018-10-18T05:16:15.214Z,157.23
2018-10-18T05:18:43.535Z,187.97
2018-10-18T05:21:11.871Z,175.53
2018-10-18T05:23:40.353Z,195.17
2018-10-18T05:26:08.748Z,191.97
2018-10-18T05:28:37.170Z,203.23
2018-10-18T05:31:05.579Z,218.37
2018-10-18T05:33:33.914Z,232.33
2018-10-18T05:36:02.274Z,279.50
2018-10-18T05:38:30.646Z,241.03
2018-10-18T05:40:59.037Z,256.03
2018-10-18T05:43:27.385Z,230.47
2018-10-18T05:45:56.200Z,296.37
2018-10-18T05:48:24.658Z,275.10
2018-10-18T05:50:53.011Z,259.97
2018-10-18T05:53:21.406Z,251.43
2018-10-18T05:55:49.777Z,252.50
2018-10-18T05:58:18.193Z,234.10
2018-10-18T06:00:46.549Z,237.73
2018-10-18T06:03:14.928Z,237.10
2018-10-18T06:05:43.313Z,274.73
2018-10-18T06:08:11.724Z,267.23
2018-10-18T06:10:51.187Z,280.40
2018-10-18T06:13:19.714Z,263.43
2018-10-18T06:15:47.943Z,264.63
2018-10-18T06:18:16.284Z,262.87
2018-10-18T06:20:44.728Z,267.93
2018-10-18T06:23:13.160Z,284.53
2018-10-18T06:25:41.494Z,264.80
2018-10-18T06:28:09.848Z,289.37
2018-10-18T06:30:38.234Z,289.53
2018-10-18T06:33:06.717Z,297.37
2018-10-18T06:35:35.043Z,282.23
2018-10-18T06:38:03.493Z,280.50
2018-10-18T06:40:31.870Z,286.17
2018-10-18T06:43:00.352Z,272.70
2018-10-18T06:45:28.706Z,287.63
2018-10-18T06:47:57.215Z,254.27
2018-10-18T06:50:25.532Z,262.13
2018-10-18T06:52:53.924Z,254.10
2018-10-18T06:55:22.324Z,230.07
2018-10-18T06:57:50.784Z,240.30
2018-10-18T07:00:22.448Z,231.77
2018-10-18T07:02:51.023Z,237.47
2018-10-18T07:05:19.408Z,232.10
2018-10-18T07:07:47.852Z,236.90
2018-10-18T07:10:16.222Z,249.40
2018-10-18T07:12:44.596Z,235.77
2018-10-18T07:15:14.044Z,220.73
2018-10-18T07:17:43.110Z,218.67
2018-10-18T07:20:11.857Z,211.07
2018-10-18T07:22:40.644Z,209.37
2018-10-18T07:25:12.646Z,191.80
2018-10-18T07:27:41.620Z,213.07
2018-10-18T07:30:11.446Z,190.53
2018-10-18T07:32:39.794Z,193.27
2018-10-18T07:35:09.128Z,186.97
2018-10-18T07:37:37.636Z,208.20
2018-10-18T07:40:07.570Z,198.10
2018-10-18T07:42:36.002Z,184.23
2018-10-18T07:45:04.352Z,177.43
2018-10-18T07:47:32.838Z,195.13
2018-10-18T07:50:01.186Z,174.77
2018-10-18T07:52:29.655Z,166.27
2018-10-18T07:54:58.045Z,177.77
2018-10-18T07:57:26.543Z,169.27
2018-10-18T07:59:55.025Z,163.47
2018-10-18T08:02:23.412Z,176.57
2018-10-18T08:04:51.798Z,155.83
2018-10-18T08:07:20.207Z,167.17
2018-10-18T08:09:48.630Z,160.03
2018-10-18T08:12:17.082Z,161.83
2018-10-18T08:14:45.477Z,180.00
2018-10-18T08:17:13.898Z,167.97
2018-10-18T08:19:42.256Z,170.60
2018-10-18T08:22:10.658Z,162.20
2018-10-18T08:24:39.269Z,183.70
2018-10-18T08:27:07.632Z,174.10
2018-10-18T08:29:36.012Z,178.40
2018-10-18T08:32:04.473Z,177.20
2018-10-18T08:34:32.878Z,185.90
2018-10-18T08:37:01.439Z,171.13
2018-10-18T08:39:29.827Z,171.67
2018-10-18T08:41:58.200Z,169.23
2018-10-18T08:44:26.727Z,153.03
2018-10-18T08:46:55.167Z,145.37
2018-10-18T08:49:23.591Z,155.50
2018-10-18T08:51:51.959Z,150.93
2018-10-18T08:54:20.409Z,153.60
2018-10-18T08:56:48.849Z,134.30
2018-10-18T08:59:17.271Z,139.83
2018-10-18T09:01:45.632Z,115.07
2018-10-18T09:04:14.075Z,124.03
2018-10-18T09:06:42.529Z,115.47
2018-10-18T09:09:11.012Z,127.87
2018-10-18T09:11:39.314Z,125.27
2018-10-18T09:14:08.104Z,119.97
2018-10-18T09:16:36.438Z,120.23
2018-10-18T09:19:05.431Z,114.23
2018-10-18T09:21:33.829Z,112.77
2018-10-18T09:24:02.208Z,106.47
2018-10-18T09:26:30.668Z,106.37
2018-10-18T09:28:59.067Z,101.30
2018-10-18T09:31:27.437Z,114.23
2018-10-18T09:33:55.884Z,104.43
2018-10-18T09:36:24.306Z,112.53
2018-10-18T09:38:52.698Z,107.63
2018-10-18T09:41:21.366Z,110.17
2018-10-18T09:43:54.009Z,101.33
2018-10-18T09:46:22.427Z,100.07
2018-10-18T09:48:50.833Z,103.67
2018-10-18T09:51:19.284Z,100.23
2018-10-18T09:53:47.720Z,113.20
2018-10-18T09:56:16.172Z,109.60
2018-10-18T09:58:45.436Z,108.93
2018-10-18T10:01:19.058Z,113.30
2018-10-18T10:03:47.498Z,102.73
2018-10-18T10:06:15.993Z,96.83
2018-10-18T10:08:44.386Z,106.90
2018-10-18T10:11:12.776Z,108.43
2018-10-18T10:13:41.244Z,102.97
2018-10-18T10:16:09.596Z,101.57
2018-10-18T10:18:37.992Z,98.70
2018-10-18T10:21:06.461Z,91.37
2018-10-18T10:23:34.889Z,79.73
2018-10-18T10:26:03.618Z,88.03
2018-10-18T10:28:32.003Z,90.60
2018-10-18T10:31:00.419Z,89.23
2018-10-18T10:33:28.876Z,85.70
2018-10-18T10:35:57.131Z,82.07
2018-10-18T10:38:25.527Z,84.00
2018-10-18T10:40:53.886Z,89.73
2018-10-18T10:43:22.235Z,79.20
2018-10-18T10:45:50.718Z,81.17
2018-10-18T10:48:19.109Z,83.60
2018-10-18T10:50:47.416Z,80.43
2018-10-18T10:53:15.814Z,84.23
2018-10-18T10:55:44.205Z,72.33
2018-10-18T10:58:12.620Z,74.37
2018-10-18T11:01:16.917Z,75.60
2018-10-18T11:03:45.624Z,73.07
2018-10-18T11:06:14.207Z,84.03
2018-10-18T11:08:42.564Z,67.27
2018-10-18T11:11:11.496Z,73.13
2018-10-18T11:13:39.882Z,60.50
2018-10-18T11:16:08.477Z,64.87
2018-10-18T11:18:37.693Z,60.90
2018-10-18T11:21:07.239Z,64.63
2018-10-18T11:23:35.954Z,60.40
2018-10-18T11:26:04.454Z,54.87
2018-10-18T11:28:32.881Z,58.70
2018-10-18T11:31:01.238Z,55.17
2018-10-18T11:33:29.672Z,56.83
2018-10-18T11:35:58.116Z,63.13
2018-10-18T11:38:26.534Z,50.13
2018-10-18T11:40:54.934Z,49.10
2018-10-18T11:43:23.350Z,53.10
2018-10-18T11:45:51.735Z,51.00
2018-10-18T11:48:20.096Z,48.13
2018-10-18T11:50:48.456Z,54.07
2018-10-18T11:53:16.826Z,47.20
2018-10-18T11:55:45.164Z,52.50
2018-10-18T11:58:13.864Z,52.33
2018-10-18T12:00:42.292Z,50.87
2018-10-18T12:03:10.672Z,47.60
2018-10-18T12:05:39.042Z,46.77
2018-10-18T12:08:07.468Z,54.93
2018-10-18T12:10:35.798Z,46.23
2018-10-18T12:13:04.155Z,55.80
2018-10-18T12:15:32.561Z,52.57
2018-10-18T12:18:01.008Z,46.33
2018-10-18T12:20:29.356Z,51.60
2018-10-18T12:22:57.749Z,50.97
2018-10-18T12:25:26.157Z,57.07
2018-10-18T12:27:54.639Z,56.90
2018-10-18T12:30:23.035Z,62.17
2018-10-18T12:32:51.425Z,67.77
2018-10-18T12:35:19.795Z,71.07
2018-10-18T12:37:48.184Z,70.37
2018-10-18T12:40:16.632Z,70.50
2018-10-18T12:42:46.366Z,72.53
2018-10-18T12:45:14.802Z,84.20
2018-10-18T12:47:43.269Z,78.20
2018-10-18T12:50:11.806Z,68.73
2018-10-18T12:52:40.129Z,75.60
2018-10-18T12:55:08.568Z,79.53
2018-10-18T12:57:37.025Z,72.13
2018-10-18T13:00:06.839Z,79.30
2018-10-18T13:02:35.263Z,64.80
2018-10-18T13:05:03.658Z,63.77
2018-10-18T13:07:32.112Z,75.13
2018-10-18T13:10:00.583Z,65.10
2018-10-18T13:12:29.223Z,68.27
2018-10-18T13:14:57.693Z,62.73
2018-10-18T13:17:26.128Z,66.10
2018-10-18T13:19:54.543Z,66.80
2018-10-18T13:22:22.955Z,61.07
2018-10-18T13:24:51.363Z,65.50
2018-10-18T13:27:19.797Z,70.73
2018-10-18T13:29:48.219Z,71.67
2018-10-18T13:32:16.883Z,70.77
2018-10-18T13:34:45.229Z,80.80
2018-10-18T13:37:13.835Z,77.83
2018-10-18T13:39:42.316Z,71.33
2018-10-18T13:42:10.751Z,74.77
2018-10-18T13:44:39.102Z,78.90
2018-10-18T13:47:07.569Z,80.37
2018-10-18T13:49:36.039Z,79.90
2018-10-18T13:52:04.456Z,83.80
2018-10-18T13:54:32.865Z,75.70
2018-10-18T13:57:01.363Z,72.97
2018-10-18T13:59:41.009Z,77.97
2018-10-18T14:02:09.401Z,77.90
2018-10-18T14:04:37.819Z,83.07
2018-10-18T14:07:06.212Z,73.40
2018-10-18T14:09:34.645Z,76.97
2018-10-18T14:12:03.088Z,74.33
2018-10-18T14:14:31.538Z,75.33
2018-10-18T14:16:59.973Z,76.13
2018-10-18T14:19:28.386Z,80.60
2018-10-18T14:21:56.944Z,75.97
2018-10-18T14:24:25.313Z,85.20
2018-10-18T14:26:53.740Z,84.43
2018-10-18T14:29:22.138Z,74.73
2018-10-18T14:31:50.550Z,68.77
2018-10-18T14:34:19.017Z,80.00
2018-10-18T14:36:47.473Z,69.73
2018-10-18T14:39:15.846Z,77.10
2018-10-18T14:41:44.258Z,71.00
2018-10-18T14:44:12.671Z,68.17
2018-10-18T14:46:41.073Z,78.67
2018-10-18T14:49:09.459Z,74.97
2018-10-18T14:51:37.990Z,77.70
2018-10-18T14:54:06.372Z,83.07
2018-10-18T14:56:34.729Z,75.57
2018-10-18T14:59:03.191Z,90.27
2018-10-18T15:01:31.543Z,89.60
2018-10-18T15:03:59.945Z,90.60
2018-10-18T15:06:28.355Z,85.87
2018-10-18T15:08:56.741Z,93.50
2018-10-18T15:11:25.130Z,85.73
2018-10-18T15:13:53.740Z,78.47
2018-10-18T15:16:22.148Z,83.87
2018-10-18T15:18:50.548Z,92.00
2018-10-18T15:21:18.963Z,91.53
2018-10-18T15:23:47.419Z,90.47
2018-10-18T15:26:15.821Z,85.40
2018-10-18T15:28:44.215Z,99.10
2018-10-18T15:31:12.651Z,88.07
2018-10-18T15:33:41.134Z,87.70
2018-10-18T15:36:09.530Z,87.83
2018-10-18T15:38:38.086Z,81.77
2018-10-18T15:41:06.550Z,87.77
2018-10-18T15:43:34.849Z,86.17
2018-10-18T15:46:03.279Z,87.53
2018-10-18T15:48:31.704Z,90.17
2018-10-18T15:51:00.156Z,85.50
2018-10-18T15:53:28.621Z,86.43
2018-10-18T15:55:57.237Z,109.40
2018-10-18T15:58:25.729Z,95.40
2018-10-18T16:00:54.090Z,88.23
2018-10-18T16:03:22.531Z,97.60
2018-10-18T16:05:50.952Z,96.80
2018-10-18T16:08:19.287Z,92.90
2018-10-18T16:10:47.680Z,86.50
2018-10-18T16:13:16.155Z,89.30
2018-10-18T16:15:44.542Z,88.03
2018-10-18T16:18:12.982Z,91.20
2018-10-18T16:20:41.374Z,98.37
2018-10-18T16:23:09.818Z,82.67
2018-10-18T16:25:38.288Z,80.53
2018-10-18T16:28:06.709Z,101.40
2018-10-18T16:30:35.118Z,91.90
2018-10-18T16:33:03.546Z,87.23
2018-10-18T16:35:31.986Z,87.10
2018-10-18T16:38:00.463Z,82.70
2018-10-18T16:40:28.890Z,83.60
2018-10-18T16:42:57.362Z,78.23
2018-10-18T16:45:25.733Z,78.23
2018-10-18T16:47:54.183Z,85.60
2018-10-18T16:50:22.512Z,80.03
2018-10-18T16:52:50.880Z,78.20
2018-10-18T16:55:19.303Z,81.07
2018-10-18T16:57:47.693Z,77.60
2018-10-18T17:00:16.217Z,71.83
2018-10-18T17:02:44.660Z,70.87
2018-10-18T17:05:13.073Z,76.37
2018-10-18T17:07:41.491Z,80.53
2018-10-18T17:10:10.056Z,81.00
2018-10-18T17:12:38.436Z,110.17
2018-10-18T17:15:07.145Z,81.70
2018-10-18T17:17:36.009Z,72.77
2018-10-18T17:20:04.629Z,73.53
2018-10-18T17:22:33.217Z,72.20
2018-10-18T17:25:01.679Z,82.47
2018-10-18T17:27:30.299Z,74.20
2018-10-18T17:29:58.609Z,62.37
2018-10-18T17:32:27.036Z,73.17
2018-10-18T17:34:55.403Z,68.27
2018-10-18T17:37:23.761Z,68.27
2018-10-18T17:39:52.260Z,66.20
2018-10-18T17:42:20.759Z,72.87
2018-10-18T17:44:49.102Z,80.17
2018-10-18T17:47:17.528Z,75.70
2018-10-18T17:49:45.865Z,66.10
2018-10-18T17:52:14.419Z,61.60
2018-10-18T17:54:42.832Z,69.90
2018-10-18T17:57:11.302Z,77.40
2018-10-18T17:59:39.694Z,73.13
2018-10-18T18:02:08.081Z,76.73
2018-10-18T18:04:36.842Z,73.30
2018-10-18T18:07:05.365Z,70.80
2018-10-18T18:09:33.793Z,66.97
2018-10-18T18:12:02.265Z,65.10
2018-10-18T18:14:30.681Z,68.83
2018-10-18T18:16:59.086Z,67.47
2018-10-18T18:19:27.460Z,67.53
2018-10-18T18:21:55.884Z,72.43
2018-10-18T18:24:24.322Z,71.67
2018-10-18T18:26:52.845Z,71.57
2018-10-18T18:29:21.238Z,72.83
2018-10-18T18:31:49.606Z,66.77
2018-10-18T18:34:18.058Z,63.13
2018-10-18T18:36:46.544Z,65.80
2018-10-18T18:39:14.902Z,72.50
2018-10-18T18:41:43.281Z,64.60
2018-10-18T18:44:11.644Z,66.30
2018-10-18T18:46:40.045Z,66.20
2018-10-18T18:49:08.394Z,63.87
2018-10-18T18:51:36.947Z,62.63
2018-10-18T18:54:05.452Z,60.17
2018-10-18T18:56:33.954Z,61.73
2018-10-18T18:59:02.388Z,56.47
2018-10-18T19:01:30.803Z,73.53
2018-10-18T19:03:59.154Z,62.20
2018-10-18T19:06:27.566Z,61.00
2018-10-18T19:08:55.941Z,61.50
2018-10-18T19:11:24.351Z,60.17
2018-10-18T19:13:52.757Z,59.17
2018-10-18T19:16:21.151Z,61.70
2018-10-18T19:18:49.804Z,60.10
2018-10-18T19:21:18.194Z,59.93
2018-10-18T19:23:46.644Z,59.60
2018-10-18T19:26:15.143Z,64.10
2018-10-18T19:28:43.781Z,62.93
2018-10-18T19:31:12.132Z,65.63
2018-10-18T19:33:40.426Z,62.03
2018-10-18T19:36:08.793Z,68.97
2018-10-18T19:38:37.281Z,59.10
2018-10-18T19:41:05.648Z,65.07
2018-10-18T19:43:34.005Z,58.57
2018-10-18T19:46:02.494Z,60.73
2018-10-18T19:48:30.817Z,64.37
2018-10-18T19:50:59.212Z,64.73
2018-10-18T19:53:27.653Z,62.50
2018-10-18T19:55:56.067Z,65.00
2018-10-18T19:58:24.492Z,64.73
2018-10-18T20:00:52.853Z,70.00
2018-10-18T20:03:21.214Z,62.63
2018-10-18T20:05:49.581Z,64.70
2018-10-18T20:08:18.006Z,68.63
2018-10-18T20:10:46.296Z,69.43
2018-10-18T20:13:14.842Z,75.10
2018-10-18T20:15:43.236Z,77.67
2018-10-18T20:18:11.701Z,64.53
2018-10-18T20:20:40.058Z,75.23
2018-10-18T20:23:08.423Z,64.60
2018-10-18T20:25:36.955Z,68.40
2018-10-18T20:28:05.818Z,69.47
2018-10-18T20:30:34.294Z,68.40
2018-10-18T20:33:02.786Z,71.77
2018-10-18T20:35:31.256Z,68.10
2018-10-18T20:37:59.618Z,65.43
2018-10-18T20:40:28.086Z,63.83
2018-10-18T20:42:56.498Z,69.40
2018-10-18T20:45:29.092Z,57.27
2018-10-18T20:47:57.901Z,61.00
2018-10-18T20:50:26.181Z,62.87
2018-10-18T20:52:54.566Z,72.57
2018-10-18T20:55:22.926Z,64.33
2018-10-18T20:57:51.273Z,69.20
2018-10-18T21:00:19.723Z,55.13
2018-10-18T21:02:48.087Z,55.87
2018-10-18T21:05:16.442Z,64.93
2018-10-18T21:07:44.994Z,55.43
2018-10-18T21:10:13.361Z,56.73
2018-10-18T21:12:41.744Z,51.67
2018-10-18T21:15:10.155Z,48.07
2018-10-18T21:17:38.606Z,45.80
2018-10-18T21:20:07.082Z,45.43
2018-10-18T21:22:35.418Z,39.47
2018-10-18T21:25:03.883Z,45.00
2018-10-18T21:27:32.329Z,39.50
2018-10-18T21:30:00.703Z,40.83
2018-10-18T21:32:29.083Z,43.23
2018-10-18T21:34:57.431Z,40.50
2018-10-18T21:37:25.872Z,40.03
2018-10-18T21:39:54.226Z,35.37
2018-10-18T21:42:22.592Z,41.53
2018-10-18T21:44:51.665Z,35.67
2018-10-18T21:47:20.149Z,41.83
2018-10-18T21:49:48.560Z,33.83
2018-10-18T21:52:16.908Z,38.40
2018-10-18T21:54:45.263Z,35.00
2018-10-18T21:57:13.778Z,34.50
2018-10-18T21:59:42.055Z,36.17
2018-10-18T22:02:10.517Z,32.50
2018-10-18T22:04:38.878Z,39.87
2018-10-18T22:07:07.219Z,33.37
2018-10-18T22:09:35.577Z,31.90
2018-10-18T22:12:03.930Z,33.60
2018-10-18T22:14:32.331Z,34.07
2018-10-18T22:17:00.792Z,37.03
2018-10-18T22:19:29.081Z,32.20
2018-10-18T22:21:57.467Z,37.97
2018-10-18T22:24:25.796Z,32.50
2018-10-18T22:26:54.234Z,29.20
2018-10-18T22:29:22.540Z,32.47
2018-10-18T22:31:50.893Z,32.00
2018-10-18T22:34:19.292Z,33.20
2018-10-18T22:36:47.602Z,34.60
2018-10-18T22:39:15.950Z,29.30
2018-10-18T22:41:44.340Z,30.50
2018-10-18T22:44:12.703Z,29.30
2018-10-18T22:46:41.003Z,30.73
2018-10-18T22:49:09.421Z,31.13
2018-10-18T22:51:37.795Z,31.30
2018-10-18T22:54:06.216Z,26.07
2018-10-18T22:56:34.753Z,31.40
2018-10-18T22:59:03.176Z,26.70
2018-10-18T23:01:31.426Z,31.77
2018-10-18T23:03:59.753Z,29.63
2018-10-18T23:06:28.121Z,27.80
2018-10-18T23:08:56.514Z,31.23
2018-10-18T23:11:24.898Z,27.97
2018-10-18T23:13:53.273Z,31.73
2018-10-18T23:16:21.596Z,25.13
2018-10-18T23:18:49.997Z,23.30
2018-10-18T23:21:18.327Z,21.43
2018-10-18T23:23:46.658Z,22.83
2018-10-18T23:26:15.068Z,26.07
2018-10-18T23:28:43.425Z,24.43
2018-10-18T23:31:11.766Z,25.60
2018-10-18T23:33:40.079Z,22.33
2018-10-18T23:36:08.392Z,25.63
2018-10-18T23:38:36.742Z,26.93
2018-10-18T23:41:05.739Z,27.87
2018-10-18T23:43:34.040Z,26.83
2018-10-18T23:46:02.365Z,20.63
2018-10-18T23:48:30.720Z,20.37
2018-10-18T23:50:59.053Z,24.13
2018-10-18T23:53:27.351Z,21.93
2018-10-18T23:55:55.689Z,26.50
2018-10-18T23:58:24.005Z,21.13
